sensor_id;sensor_type;location;lat;lon;timestamp;P1;durP1;ratioP1;P2;durP2;ratioP2
4214;SDS011;2121;48.062;7.850;2023-06-22T00:00:53;9.30;;;7.47;;
4214;SDS011;2121;48.062;7.850;2023-06-22T00:03:19;8.63;;;6.27;;
4214;SDS011;2121;48.062;7.850;2023-06-22T00:05:47;9.43;;;6.20;;
4214;SDS011;2121;48.062;7.850;2023-06-22T00:08:14;10.53;;;6.63;;
4214;SDS011;2121;48.062;7.850;2023-06-22T00:10:40;12.67;;;7.23;;
4214;SDS011;2121;48.062;7.850;2023-06-22T00:13:07;9.27;;;6.53;;
4214;SDS011;2121;48.062;7.850;2023-06-22T00:15:33;15.03;;;7.87;;
4214;SDS011;2121;48.062;7.850;2023-06-22T00:17:59;14.13;;;7.00;;
4214;SDS011;2121;48.062;7.850;2023-06-22T00:20:26;12.13;;;6.53;;
4214;SDS011;2121;48.062;7.850;2023-06-22T00:22:55;10.80;;;7.07;;
4214;SDS011;2121;48.062;7.850;2023-06-22T00:25:23;8.60;;;7.57;;
4214;SDS011;2121;48.062;7.850;2023-06-22T00:27:49;12.77;;;8.23;;
4214;SDS011;2121;48.062;7.850;2023-06-22T00:30:15;12.67;;;8.53;;
4214;SDS011;2121;48.062;7.850;2023-06-22T00:32:42;15.77;;;7.40;;
4214;SDS011;2121;48.062;7.850;2023-06-22T00:35:09;19.73;;;9.03;;
4214;SDS011;2121;48.062;7.850;2023-06-22T00:37:35;16.23;;;8.20;;
4214;SDS011;2121;48.062;7.850;2023-06-22T00:40:05;15.67;;;7.93;;
4214;SDS011;2121;48.062;7.850;2023-06-22T00:42:32;13.30;;;7.53;;
4214;SDS011;2121;48.062;7.850;2023-06-22T00:44:58;11.40;;;7.77;;
4214;SDS011;2121;48.062;7.850;2023-06-22T00:47:24;9.23;;;7.30;;
4214;SDS011;2121;48.062;7.850;2023-06-22T00:49:49;12.03;;;8.40;;
4214;SDS011;2121;48.062;7.850;2023-06-22T00:52:19;16.80;;;8.10;;
4214;SDS011;2121;48.062;7.850;2023-06-22T00:54:52;17.03;;;8.90;;
4214;SDS011;2121;48.062;7.850;2023-06-22T00:57:19;13.00;;;8.20;;
4214;SDS011;2121;48.062;7.850;2023-06-22T00:59:47;14.10;;;9.03;;
4214;SDS011;2121;48.062;7.850;2023-06-22T01:02:13;14.87;;;8.57;;
4214;SDS011;2121;48.062;7.850;2023-06-22T01:04:40;11.97;;;8.70;;
4214;SDS011;2121;48.062;7.850;2023-06-22T01:12:42;18.43;;;9.30;;
4214;SDS011;2121;48.062;7.850;2023-06-22T01:15:31;8.90;;;7.57;;
4214;SDS011;2121;48.062;7.850;2023-06-22T01:18:06;14.33;;;9.47;;
4214;SDS011;2121;48.062;7.850;2023-06-22T01:20:34;15.30;;;8.50;;
4214;SDS011;2121;48.062;7.850;2023-06-22T01:29:01;16.20;;;8.33;;
4214;SDS011;2121;48.062;7.850;2023-06-22T01:31:29;16.57;;;8.03;;
4214;SDS011;2121;48.062;7.850;2023-06-22T01:34:01;11.83;;;7.37;;
4214;SDS011;2121;48.062;7.850;2023-06-22T01:36:30;20.07;;;9.40;;
4214;SDS011;2121;48.062;7.850;2023-06-22T01:38:58;14.73;;;9.03;;
4214;SDS011;2121;48.062;7.850;2023-06-22T01:41:25;20.17;;;8.67;;
4214;SDS011;2121;48.062;7.850;2023-06-22T01:43:54;14.50;;;7.40;;
4214;SDS011;2121;48.062;7.850;2023-06-22T01:46:21;17.23;;;8.17;;
4214;SDS011;2121;48.062;7.850;2023-06-22T01:48:48;15.93;;;8.53;;
4214;SDS011;2121;48.062;7.850;2023-06-22T01:51:14;20.57;;;9.23;;
4214;SDS011;2121;48.062;7.850;2023-06-22T01:53:40;18.00;;;8.63;;
4214;SDS011;2121;48.062;7.850;2023-06-22T01:56:06;12.23;;;7.53;;
4214;SDS011;2121;48.062;7.850;2023-06-22T01:58:32;19.43;;;7.90;;
4214;SDS011;2121;48.062;7.850;2023-06-22T02:01:12;13.17;;;8.10;;
4214;SDS011;2121;48.062;7.850;2023-06-22T02:06:42;16.13;;;7.67;;
4214;SDS011;2121;48.062;7.850;2023-06-22T02:09:12;24.10;;;9.13;;
4214;SDS011;2121;48.062;7.850;2023-06-22T02:11:42;18.03;;;7.80;;
4214;SDS011;2121;48.062;7.850;2023-06-22T02:14:11;16.40;;;7.80;;
4214;SDS011;2121;48.062;7.850;2023-06-22T02:16:38;14.50;;;8.30;;
4214;SDS011;2121;48.062;7.850;2023-06-22T02:19:06;15.53;;;7.80;;
4214;SDS011;2121;48.062;7.850;2023-06-22T02:21:31;13.23;;;8.83;;
4214;SDS011;2121;48.062;7.850;2023-06-22T02:23:57;11.43;;;8.50;;
4214;SDS011;2121;48.062;7.850;2023-06-22T02:26:23;14.70;;;8.50;;
4214;SDS011;2121;48.062;7.850;2023-06-22T02:28:51;14.10;;;10.30;;
4214;SDS011;2121;48.062;7.850;2023-06-22T02:31:18;17.60;;;9.40;;
4214;SDS011;2121;48.062;7.850;2023-06-22T02:33:44;21.23;;;8.40;;
4214;SDS011;2121;48.062;7.850;2023-06-22T02:36:10;16.53;;;8.20;;
4214;SDS011;2121;48.062;7.850;2023-06-22T02:38:38;11.50;;;8.83;;
4214;SDS011;2121;48.062;7.850;2023-06-22T02:41:13;15.27;;;8.47;;
4214;SDS011;2121;48.062;7.850;2023-06-22T02:43:44;17.90;;;8.97;;
4214;SDS011;2121;48.062;7.850;2023-06-22T02:46:13;17.83;;;9.10;;
4214;SDS011;2121;48.062;7.850;2023-06-22T02:48:42;22.53;;;10.20;;
4214;SDS011;2121;48.062;7.850;2023-06-22T02:51:08;22.37;;;8.20;;
4214;SDS011;2121;48.062;7.850;2023-06-22T02:53:34;12.53;;;8.00;;
4214;SDS011;2121;48.062;7.850;2023-06-22T02:56:01;12.23;;;9.30;;
4214;SDS011;2121;48.062;7.850;2023-06-22T02:58:30;12.33;;;9.10;;
4214;SDS011;2121;48.062;7.850;2023-06-22T03:01:04;10.67;;;7.70;;
4214;SDS011;2121;48.062;7.850;2023-06-22T03:03:30;15.90;;;8.60;;
4214;SDS011;2121;48.062;7.850;2023-06-22T03:05:56;24.20;;;9.57;;
4214;SDS011;2121;48.062;7.850;2023-06-22T03:08:22;15.13;;;8.60;;
4214;SDS011;2121;48.062;7.850;2023-06-22T03:10:48;11.70;;;7.63;;
4214;SDS011;2121;48.062;7.850;2023-06-22T03:13:14;16.20;;;9.60;;
4214;SDS011;2121;48.062;7.850;2023-06-22T03:15:39;13.97;;;9.27;;
4214;SDS011;2121;48.062;7.850;2023-06-22T03:18:05;16.57;;;9.27;;
4214;SDS011;2121;48.062;7.850;2023-06-22T03:20:31;14.97;;;8.90;;
4214;SDS011;2121;48.062;7.850;2023-06-22T03:22:58;12.50;;;8.47;;
4214;SDS011;2121;48.062;7.850;2023-06-22T03:25:24;11.13;;;8.67;;
4214;SDS011;2121;48.062;7.850;2023-06-22T03:27:50;9.17;;;8.30;;
4214;SDS011;2121;48.062;7.850;2023-06-22T03:30:16;11.70;;;9.30;;
4214;SDS011;2121;48.062;7.850;2023-06-22T03:32:41;15.70;;;8.47;;
4214;SDS011;2121;48.062;7.850;2023-06-22T03:35:08;10.57;;;8.30;;
4214;SDS011;2121;48.062;7.850;2023-06-22T03:37:34;11.83;;;8.40;;
4214;SDS011;2121;48.062;7.850;2023-06-22T03:40:00;11.93;;;8.13;;
4214;SDS011;2121;48.062;7.850;2023-06-22T03:42:26;18.27;;;9.07;;
4214;SDS011;2121;48.062;7.850;2023-06-22T03:44:51;15.10;;;8.20;;
4214;SDS011;2121;48.062;7.850;2023-06-22T03:47:17;17.03;;;9.33;;
4214;SDS011;2121;48.062;7.850;2023-06-22T03:49:43;18.07;;;9.03;;
4214;SDS011;2121;48.062;7.850;2023-06-22T03:52:09;12.37;;;8.80;;
4214;SDS011;2121;48.062;7.850;2023-06-22T03:54:35;15.03;;;9.37;;
4214;SDS011;2121;48.062;7.850;2023-06-22T03:57:01;12.67;;;8.17;;
4214;SDS011;2121;48.062;7.850;2023-06-22T03:59:27;14.27;;;8.87;;
4214;SDS011;2121;48.062;7.850;2023-06-22T04:01:53;11.33;;;8.60;;
4214;SDS011;2121;48.062;7.850;2023-06-22T04:04:19;17.43;;;9.63;;
4214;SDS011;2121;48.062;7.850;2023-06-22T04:06:45;16.90;;;8.97;;
4214;SDS011;2121;48.062;7.850;2023-06-22T04:09:11;12.23;;;8.93;;
4214;SDS011;2121;48.062;7.850;2023-06-22T04:11:37;14.63;;;8.57;;
4214;SDS011;2121;48.062;7.850;2023-06-22T04:14:03;16.97;;;8.73;;
4214;SDS011;2121;48.062;7.850;2023-06-22T04:16:28;13.00;;;9.40;;
4214;SDS011;2121;48.062;7.850;2023-06-22T04:18:54;10.03;;;7.47;;
4214;SDS011;2121;48.062;7.850;2023-06-22T04:21:20;11.63;;;8.50;;
4214;SDS011;2121;48.062;7.850;2023-06-22T04:23:46;15.33;;;9.73;;
4214;SDS011;2121;48.062;7.850;2023-06-22T04:26:12;12.23;;;8.80;;
4214;SDS011;2121;48.062;7.850;2023-06-22T04:28:41;16.00;;;8.90;;
4214;SDS011;2121;48.062;7.850;2023-06-22T04:31:07;11.93;;;8.73;;
4214;SDS011;2121;48.062;7.850;2023-06-22T04:33:32;14.50;;;7.70;;
4214;SDS011;2121;48.062;7.850;2023-06-22T04:35:58;14.70;;;9.03;;
4214;SDS011;2121;48.062;7.850;2023-06-22T04:38:27;13.40;;;8.93;;
4214;SDS011;2121;48.062;7.850;2023-06-22T04:40:52;14.33;;;9.30;;
4214;SDS011;2121;48.062;7.850;2023-06-22T04:43:19;16.30;;;10.00;;
4214;SDS011;2121;48.062;7.850;2023-06-22T04:45:45;12.23;;;9.50;;
4214;SDS011;2121;48.062;7.850;2023-06-22T04:48:11;13.50;;;9.27;;
4214;SDS011;2121;48.062;7.850;2023-06-22T04:50:41;16.13;;;9.63;;
4214;SDS011;2121;48.062;7.850;2023-06-22T04:53:07;19.00;;;11.87;;
4214;SDS011;2121;48.062;7.850;2023-06-22T04:55:37;12.60;;;10.37;;
4214;SDS011;2121;48.062;7.850;2023-06-22T04:58:06;17.00;;;9.37;;
4214;SDS011;2121;48.062;7.850;2023-06-22T05:00:32;15.10;;;10.83;;
4214;SDS011;2121;48.062;7.850;2023-06-22T05:03:01;19.73;;;12.20;;
4214;SDS011;2121;48.062;7.850;2023-06-22T05:05:28;20.20;;;12.33;;
4214;SDS011;2121;48.062;7.850;2023-06-22T05:07:56;16.87;;;12.80;;
4214;SDS011;2121;48.062;7.850;2023-06-22T05:10:25;15.50;;;12.90;;
4214;SDS011;2121;48.062;7.850;2023-06-22T05:12:51;20.17;;;13.70;;
4214;SDS011;2121;48.062;7.850;2023-06-22T05:15:17;22.23;;;14.07;;
4214;SDS011;2121;48.062;7.850;2023-06-22T05:17:44;23.23;;;15.90;;
4214;SDS011;2121;48.062;7.850;2023-06-22T05:20:10;18.83;;;13.70;;
4214;SDS011;2121;48.062;7.850;2023-06-22T05:22:38;24.97;;;16.30;;
4214;SDS011;2121;48.062;7.850;2023-06-22T05:25:08;21.90;;;14.80;;
4214;SDS011;2121;48.062;7.850;2023-06-22T05:27:35;21.43;;;15.33;;
4214;SDS011;2121;48.062;7.850;2023-06-22T05:30:05;22.13;;;16.20;;
4214;SDS011;2121;48.062;7.850;2023-06-22T05:32:34;23.10;;;17.77;;
4214;SDS011;2121;48.062;7.850;2023-06-22T05:35:01;23.47;;;16.30;;
4214;SDS011;2121;48.062;7.850;2023-06-22T05:37:28;22.63;;;17.13;;
4214;SDS011;2121;48.062;7.850;2023-06-22T05:39:55;24.47;;;18.27;;
4214;SDS011;2121;48.062;7.850;2023-06-22T05:42:22;28.73;;;18.10;;
4214;SDS011;2121;48.062;7.850;2023-06-22T05:44:48;23.40;;;17.87;;
4214;SDS011;2121;48.062;7.850;2023-06-22T05:47:15;23.80;;;19.27;;
4214;SDS011;2121;48.062;7.850;2023-06-22T05:49:43;27.70;;;17.90;;
4214;SDS011;2121;48.062;7.850;2023-06-22T05:52:08;25.33;;;17.80;;
4214;SDS011;2121;48.062;7.850;2023-06-22T05:54:34;28.43;;;18.60;;
4214;SDS011;2121;48.062;7.850;2023-06-22T05:57:00;25.60;;;17.17;;
4214;SDS011;2121;48.062;7.850;2023-06-22T05:59:26;28.07;;;18.40;;
4214;SDS011;2121;48.062;7.850;2023-06-22T06:01:52;26.47;;;18.90;;
4214;SDS011;2121;48.062;7.850;2023-06-22T06:04:18;30.03;;;19.33;;
4214;SDS011;2121;48.062;7.850;2023-06-22T06:06:44;27.70;;;18.70;;
4214;SDS011;2121;48.062;7.850;2023-06-22T06:09:12;31.27;;;21.00;;
4214;SDS011;2121;48.062;7.850;2023-06-22T06:11:39;28.37;;;20.53;;
4214;SDS011;2121;48.062;7.850;2023-06-22T06:14:05;30.03;;;20.67;;
4214;SDS011;2121;48.062;7.850;2023-06-22T06:16:31;35.53;;;21.00;;
4214;SDS011;2121;48.062;7.850;2023-06-22T06:18:57;28.50;;;21.90;;
4214;SDS011;2121;48.062;7.850;2023-06-22T06:21:23;29.20;;;21.10;;
4214;SDS011;2121;48.062;7.850;2023-06-22T06:23:49;29.07;;;20.70;;
4214;SDS011;2121;48.062;7.850;2023-06-22T06:26:15;27.50;;;21.50;;
4214;SDS011;2121;48.062;7.850;2023-06-22T06:28:42;27.10;;;20.97;;
4214;SDS011;2121;48.062;7.850;2023-06-22T06:31:08;28.20;;;18.73;;
4214;SDS011;2121;48.062;7.850;2023-06-22T06:33:35;31.50;;;21.67;;
4214;SDS011;2121;48.062;7.850;2023-06-22T06:36:01;28.03;;;19.30;;
4214;SDS011;2121;48.062;7.850;2023-06-22T06:38:28;27.93;;;18.37;;
4214;SDS011;2121;48.062;7.850;2023-06-22T06:40:55;27.90;;;18.47;;
4214;SDS011;2121;48.062;7.850;2023-06-22T06:43:21;24.00;;;16.97;;
4214;SDS011;2121;48.062;7.850;2023-06-22T06:45:48;19.57;;;16.17;;
4214;SDS011;2121;48.062;7.850;2023-06-22T06:48:14;21.20;;;16.87;;
4214;SDS011;2121;48.062;7.850;2023-06-22T06:50:40;22.30;;;16.43;;
4214;SDS011;2121;48.062;7.850;2023-06-22T06:53:05;23.97;;;16.47;;
4214;SDS011;2121;48.062;7.850;2023-06-22T06:55:31;26.53;;;17.27;;
4214;SDS011;2121;48.062;7.850;2023-06-22T06:57:58;22.90;;;16.23;;
4214;SDS011;2121;48.062;7.850;2023-06-22T07:00:24;24.10;;;14.80;;
4214;SDS011;2121;48.062;7.850;2023-06-22T07:02:50;19.13;;;13.00;;
4214;SDS011;2121;48.062;7.850;2023-06-22T07:05:16;16.23;;;13.50;;
4214;SDS011;2121;48.062;7.850;2023-06-22T07:07:42;21.10;;;12.23;;
4214;SDS011;2121;48.062;7.850;2023-06-22T07:10:08;24.20;;;13.90;;
4214;SDS011;2121;48.062;7.850;2023-06-22T07:12:34;16.00;;;11.73;;
4214;SDS011;2121;48.062;7.850;2023-06-22T07:15:02;18.03;;;13.40;;
4214;SDS011;2121;48.062;7.850;2023-06-22T07:17:30;21.87;;;12.77;;
4214;SDS011;2121;48.062;7.850;2023-06-22T07:19:56;21.60;;;12.50;;
4214;SDS011;2121;48.062;7.850;2023-06-22T07:22:22;22.40;;;12.80;;
4214;SDS011;2121;48.062;7.850;2023-06-22T07:24:48;16.63;;;12.13;;
4214;SDS011;2121;48.062;7.850;2023-06-22T07:27:14;20.20;;;12.60;;
4214;SDS011;2121;48.062;7.850;2023-06-22T07:29:43;17.00;;;12.00;;
4214;SDS011;2121;48.062;7.850;2023-06-22T07:32:09;16.10;;;10.27;;
4214;SDS011;2121;48.062;7.850;2023-06-22T07:34:35;20.20;;;12.67;;
4214;SDS011;2121;48.062;7.850;2023-06-22T07:37:00;19.97;;;12.80;;
4214;SDS011;2121;48.062;7.850;2023-06-22T07:39:26;14.17;;;11.03;;
4214;SDS011;2121;48.062;7.850;2023-06-22T07:41:53;17.80;;;10.97;;
4214;SDS011;2121;48.062;7.850;2023-06-22T07:44:19;12.37;;;9.20;;
4214;SDS011;2121;48.062;7.850;2023-06-22T07:46:44;14.87;;;9.90;;
4214;SDS011;2121;48.062;7.850;2023-06-22T07:49:10;14.23;;;10.73;;
4214;SDS011;2121;48.062;7.850;2023-06-22T07:51:36;13.53;;;10.73;;
4214;SDS011;2121;48.062;7.850;2023-06-22T07:54:02;13.63;;;10.00;;
4214;SDS011;2121;48.062;7.850;2023-06-22T07:56:28;18.70;;;10.90;;
4214;SDS011;2121;48.062;7.850;2023-06-22T07:58:53;13.60;;;10.20;;
4214;SDS011;2121;48.062;7.850;2023-06-22T08:01:19;12.07;;;8.97;;
4214;SDS011;2121;48.062;7.850;2023-06-22T08:03:48;19.77;;;10.37;;
4214;SDS011;2121;48.062;7.850;2023-06-22T08:06:14;11.80;;;9.10;;
4214;SDS011;2121;48.062;7.850;2023-06-22T08:08:41;13.43;;;9.23;;
4214;SDS011;2121;48.062;7.850;2023-06-22T08:11:07;19.50;;;10.23;;
4214;SDS011;2121;48.062;7.850;2023-06-22T08:13:34;11.32;;;8.60;;
4214;SDS011;2121;48.062;7.850;2023-06-22T08:16:00;15.77;;;9.23;;
4214;SDS011;2121;48.062;7.850;2023-06-22T08:18:26;14.73;;;10.27;;
4214;SDS011;2121;48.062;7.850;2023-06-22T08:20:51;11.95;;;8.45;;
4214;SDS011;2121;48.062;7.850;2023-06-22T08:23:17;9.43;;;8.40;;
4214;SDS011;2121;48.062;7.850;2023-06-22T08:25:43;15.90;;;9.18;;
4214;SDS011;2121;48.062;7.850;2023-06-22T08:28:09;19.93;;;9.47;;
4214;SDS011;2121;48.062;7.850;2023-06-22T08:30:35;13.50;;;8.88;;
4214;SDS011;2121;48.062;7.850;2023-06-22T08:33:00;10.70;;;7.78;;
4214;SDS011;2121;48.062;7.850;2023-06-22T08:35:26;8.18;;;7.40;;
4214;SDS011;2121;48.062;7.850;2023-06-22T08:37:52;10.75;;;8.20;;
4214;SDS011;2121;48.062;7.850;2023-06-22T08:40:20;10.68;;;7.47;;
4214;SDS011;2121;48.062;7.850;2023-06-22T08:42:47;16.50;;;8.57;;
4214;SDS011;2121;48.062;7.850;2023-06-22T08:45:14;7.78;;;6.90;;
4214;SDS011;2121;48.062;7.850;2023-06-22T08:47:40;11.23;;;7.22;;
4214;SDS011;2121;48.062;7.850;2023-06-22T08:50:07;10.05;;;6.50;;
4214;SDS011;2121;48.062;7.850;2023-06-22T08:52:34;10.82;;;7.45;;
4214;SDS011;2121;48.062;7.850;2023-06-22T08:55:00;8.85;;;7.00;;
4214;SDS011;2121;48.062;7.850;2023-06-22T08:57:26;12.13;;;7.15;;
4214;SDS011;2121;48.062;7.850;2023-06-22T08:59:53;11.70;;;7.72;;
4214;SDS011;2121;48.062;7.850;2023-06-22T09:02:23;9.43;;;7.13;;
4214;SDS011;2121;48.062;7.850;2023-06-22T09:04:55;15.10;;;7.55;;
4214;SDS011;2121;48.062;7.850;2023-06-22T09:07:22;14.20;;;7.13;;
4214;SDS011;2121;48.062;7.850;2023-06-22T09:09:49;10.82;;;8.05;;
4214;SDS011;2121;48.062;7.850;2023-06-22T09:12:16;12.40;;;7.95;;
4214;SDS011;2121;48.062;7.850;2023-06-22T09:14:45;9.25;;;6.63;;
4214;SDS011;2121;48.062;7.850;2023-06-22T09:17:12;9.18;;;6.65;;
4214;SDS011;2121;48.062;7.850;2023-06-22T09:19:38;12.50;;;7.75;;
4214;SDS011;2121;48.062;7.850;2023-06-22T09:22:04;8.00;;;6.30;;
4214;SDS011;2121;48.062;7.850;2023-06-22T09:24:33;14.40;;;7.47;;
4214;SDS011;2121;48.062;7.850;2023-06-22T09:26:59;7.85;;;7.07;;
4214;SDS011;2121;48.062;7.850;2023-06-22T09:29:25;9.23;;;7.35;;
4214;SDS011;2121;48.062;7.850;2023-06-22T09:31:51;9.25;;;7.18;;
4214;SDS011;2121;48.062;7.850;2023-06-22T09:34:18;10.25;;;6.40;;
4214;SDS011;2121;48.062;7.850;2023-06-22T09:36:45;9.98;;;7.25;;
4214;SDS011;2121;48.062;7.850;2023-06-22T09:39:12;8.05;;;7.13;;
4214;SDS011;2121;48.062;7.850;2023-06-22T09:41:37;14.00;;;6.70;;
4214;SDS011;2121;48.062;7.850;2023-06-22T09:44:03;12.25;;;6.65;;
4214;SDS011;2121;48.062;7.850;2023-06-22T09:46:29;19.80;;;6.93;;
4214;SDS011;2121;48.062;7.850;2023-06-22T09:48:55;10.32;;;6.53;;
4214;SDS011;2121;48.062;7.850;2023-06-22T09:51:21;7.35;;;5.18;;
4214;SDS011;2121;48.062;7.850;2023-06-22T09:53:48;7.85;;;6.00;;
4214;SDS011;2121;48.062;7.850;2023-06-22T09:56:19;13.05;;;7.10;;
4214;SDS011;2121;48.062;7.850;2023-06-22T09:58:45;7.88;;;5.38;;
4214;SDS011;2121;48.062;7.850;2023-06-22T10:01:12;10.30;;;8.60;;
4214;SDS011;2121;48.062;7.850;2023-06-22T10:03:41;13.88;;;6.53;;
4214;SDS011;2121;48.062;7.850;2023-06-22T10:06:07;10.23;;;6.57;;
4214;SDS011;2121;48.062;7.850;2023-06-22T10:08:34;8.98;;;6.25;;
4214;SDS011;2121;48.062;7.850;2023-06-22T10:11:00;9.00;;;6.00;;
4214;SDS011;2121;48.062;7.850;2023-06-22T10:13:26;8.25;;;5.63;;
4214;SDS011;2121;48.062;7.850;2023-06-22T10:15:52;11.57;;;6.20;;
4214;SDS011;2121;48.062;7.850;2023-06-22T10:18:18;11.50;;;6.45;;
4214;SDS011;2121;48.062;7.850;2023-06-22T10:20:47;9.68;;;6.60;;
4214;SDS011;2121;48.062;7.850;2023-06-22T10:23:18;7.65;;;6.57;;
4214;SDS011;2121;48.062;7.850;2023-06-22T10:25:44;8.55;;;5.63;;
4214;SDS011;2121;48.062;7.850;2023-06-22T10:28:10;13.70;;;7.13;;
4214;SDS011;2121;48.062;7.850;2023-06-22T10:30:37;14.13;;;6.85;;
4214;SDS011;2121;48.062;7.850;2023-06-22T10:33:06;11.15;;;6.68;;
4214;SDS011;2121;48.062;7.850;2023-06-22T10:35:36;10.18;;;6.90;;
4214;SDS011;2121;48.062;7.850;2023-06-22T10:38:02;13.85;;;7.80;;
4214;SDS011;2121;48.062;7.850;2023-06-22T10:40:29;8.20;;;5.90;;
4214;SDS011;2121;48.062;7.850;2023-06-22T10:42:55;9.38;;;6.95;;
4214;SDS011;2121;48.062;7.850;2023-06-22T10:45:20;8.73;;;6.63;;
4214;SDS011;2121;48.062;7.850;2023-06-22T10:47:46;9.77;;;6.90;;
4214;SDS011;2121;48.062;7.850;2023-06-22T10:50:12;12.05;;;7.60;;
4214;SDS011;2121;48.062;7.850;2023-06-22T10:52:38;11.00;;;7.50;;
4214;SDS011;2121;48.062;7.850;2023-06-22T10:55:05;14.10;;;7.63;;
4214;SDS011;2121;48.062;7.850;2023-06-22T10:57:31;12.82;;;7.50;;
4214;SDS011;2121;48.062;7.850;2023-06-22T10:59:58;14.98;;;7.72;;
4214;SDS011;2121;48.062;7.850;2023-06-22T11:02:24;12.88;;;7.18;;
4214;SDS011;2121;48.062;7.850;2023-06-22T11:04:49;14.55;;;6.93;;
4214;SDS011;2121;48.062;7.850;2023-06-22T11:07:15;11.95;;;6.95;;
4214;SDS011;2121;48.062;7.850;2023-06-22T11:09:42;9.93;;;6.88;;
4214;SDS011;2121;48.062;7.850;2023-06-22T11:12:08;10.13;;;6.85;;
4214;SDS011;2121;48.062;7.850;2023-06-22T11:14:34;13.18;;;8.00;;
4214;SDS011;2121;48.062;7.850;2023-06-22T11:17:00;9.90;;;6.10;;
4214;SDS011;2121;48.062;7.850;2023-06-22T11:19:26;9.65;;;7.10;;
4214;SDS011;2121;48.062;7.850;2023-06-22T11:21:51;11.77;;;6.68;;
4214;SDS011;2121;48.062;7.850;2023-06-22T11:24:17;6.95;;;5.50;;
4214;SDS011;2121;48.062;7.850;2023-06-22T11:26:43;9.93;;;6.70;;
4214;SDS011;2121;48.062;7.850;2023-06-22T11:29:09;16.50;;;7.90;;
4214;SDS011;2121;48.062;7.850;2023-06-22T11:31:35;7.90;;;6.80;;
4214;SDS011;2121;48.062;7.850;2023-06-22T11:34:01;9.07;;;7.10;;
4214;SDS011;2121;48.062;7.850;2023-06-22T11:36:27;9.82;;;6.55;;
4214;SDS011;2121;48.062;7.850;2023-06-22T11:38:57;12.25;;;7.35;;
4214;SDS011;2121;48.062;7.850;2023-06-22T11:41:23;9.68;;;6.30;;
4214;SDS011;2121;48.062;7.850;2023-06-22T11:43:49;13.02;;;6.00;;
4214;SDS011;2121;48.062;7.850;2023-06-22T11:46:15;19.98;;;8.75;;
4214;SDS011;2121;48.062;7.850;2023-06-22T11:48:40;17.23;;;7.82;;
4214;SDS011;2121;48.062;7.850;2023-06-22T11:51:06;11.35;;;6.18;;
4214;SDS011;2121;48.062;7.850;2023-06-22T11:53:33;9.10;;;7.28;;
4214;SDS011;2121;48.062;7.850;2023-06-22T11:56:00;10.07;;;7.28;;
4214;SDS011;2121;48.062;7.850;2023-06-22T11:58:26;10.80;;;6.93;;
4214;SDS011;2121;48.062;7.850;2023-06-22T12:00:53;11.95;;;7.80;;
4214;SDS011;2121;48.062;7.850;2023-06-22T12:03:19;11.82;;;7.13;;
4214;SDS011;2121;48.062;7.850;2023-06-22T12:05:49;9.32;;;6.47;;
4214;SDS011;2121;48.062;7.850;2023-06-22T12:08:19;10.88;;;6.60;;
4214;SDS011;2121;48.062;7.850;2023-06-22T12:10:45;15.88;;;6.68;;
4214;SDS011;2121;48.062;7.850;2023-06-22T12:13:10;9.82;;;6.57;;
4214;SDS011;2121;48.062;7.850;2023-06-22T12:15:36;12.18;;;7.10;;
4214;SDS011;2121;48.062;7.850;2023-06-22T12:18:02;12.23;;;6.93;;
4214;SDS011;2121;48.062;7.850;2023-06-22T12:20:28;13.43;;;7.30;;
4214;SDS011;2121;48.062;7.850;2023-06-22T12:22:54;17.70;;;8.02;;
4214;SDS011;2121;48.062;7.850;2023-06-22T12:25:21;9.80;;;8.80;;
4214;SDS011;2121;48.062;7.850;2023-06-22T12:27:47;11.50;;;7.53;;
4214;SDS011;2121;48.062;7.850;2023-06-22T12:30:14;10.30;;;7.95;;
4214;SDS011;2121;48.062;7.850;2023-06-22T12:32:41;14.07;;;7.15;;
4214;SDS011;2121;48.062;7.850;2023-06-22T12:35:07;13.45;;;9.05;;
4214;SDS011;2121;48.062;7.850;2023-06-22T12:37:38;13.63;;;10.00;;
4214;SDS011;2121;48.062;7.850;2023-06-22T12:40:08;13.68;;;8.85;;
4214;SDS011;2121;48.062;7.850;2023-06-22T12:42:35;14.77;;;8.05;;
4214;SDS011;2121;48.062;7.850;2023-06-22T12:45:01;12.15;;;7.50;;
4214;SDS011;2121;48.062;7.850;2023-06-22T12:47:26;11.32;;;7.43;;
4214;SDS011;2121;48.062;7.850;2023-06-22T12:49:52;14.38;;;7.65;;
4214;SDS011;2121;48.062;7.850;2023-06-22T12:52:18;11.95;;;6.65;;
4214;SDS011;2121;48.062;7.850;2023-06-22T12:54:44;16.67;;;7.10;;
4214;SDS011;2121;48.062;7.850;2023-06-22T12:57:09;9.50;;;6.40;;
4214;SDS011;2121;48.062;7.850;2023-06-22T12:59:35;14.75;;;6.88;;
4214;SDS011;2121;48.062;7.850;2023-06-22T13:02:01;12.27;;;7.75;;
4214;SDS011;2121;48.062;7.850;2023-06-22T13:04:26;12.18;;;7.15;;
4214;SDS011;2121;48.062;7.850;2023-06-22T13:06:52;13.27;;;6.47;;
4214;SDS011;2121;48.062;7.850;2023-06-22T13:09:18;14.85;;;7.63;;
4214;SDS011;2121;48.062;7.850;2023-06-22T13:11:44;18.77;;;6.78;;
4214;SDS011;2121;48.062;7.850;2023-06-22T13:14:10;11.00;;;6.35;;
4214;SDS011;2121;48.062;7.850;2023-06-22T13:16:35;9.63;;;5.68;;
4214;SDS011;2121;48.062;7.850;2023-06-22T13:19:01;9.50;;;6.22;;
4214;SDS011;2121;48.062;7.850;2023-06-22T13:21:27;13.43;;;6.05;;
4214;SDS011;2121;48.062;7.850;2023-06-22T13:23:53;11.43;;;6.35;;
4214;SDS011;2121;48.062;7.850;2023-06-22T13:26:20;15.73;;;6.07;;
4214;SDS011;2121;48.062;7.850;2023-06-22T13:28:46;12.75;;;7.45;;
4214;SDS011;2121;48.062;7.850;2023-06-22T13:31:11;9.50;;;5.93;;
4214;SDS011;2121;48.062;7.850;2023-06-22T13:33:37;19.48;;;6.88;;
4214;SDS011;2121;48.062;7.850;2023-06-22T13:36:03;11.50;;;5.95;;
4214;SDS011;2121;48.062;7.850;2023-06-22T13:38:31;9.98;;;6.15;;
4214;SDS011;2121;48.062;7.850;2023-06-22T13:40:57;23.80;;;6.85;;
4214;SDS011;2121;48.062;7.850;2023-06-22T13:43:24;10.55;;;6.45;;
4214;SDS011;2121;48.062;7.850;2023-06-22T13:45:51;11.95;;;7.15;;
4214;SDS011;2121;48.062;7.850;2023-06-22T13:48:17;13.45;;;5.43;;
4214;SDS011;2121;48.062;7.850;2023-06-22T13:50:43;9.20;;;6.18;;
4214;SDS011;2121;48.062;7.850;2023-06-22T13:53:09;14.75;;;6.93;;
4214;SDS011;2121;48.062;7.850;2023-06-22T13:55:35;9.63;;;5.32;;
4214;SDS011;2121;48.062;7.850;2023-06-22T13:58:00;19.30;;;6.47;;
4214;SDS011;2121;48.062;7.850;2023-06-22T14:00:26;11.73;;;6.35;;
4214;SDS011;2121;48.062;7.850;2023-06-22T14:02:53;9.45;;;5.88;;
4214;SDS011;2121;48.062;7.850;2023-06-22T14:05:19;11.65;;;6.03;;
4214;SDS011;2121;48.062;7.850;2023-06-22T14:07:45;9.52;;;6.40;;
4214;SDS011;2121;48.062;7.850;2023-06-22T14:10:11;14.68;;;6.68;;
4214;SDS011;2121;48.062;7.850;2023-06-22T14:12:36;12.55;;;5.80;;
4214;SDS011;2121;48.062;7.850;2023-06-22T14:15:03;20.05;;;6.22;;
4214;SDS011;2121;48.062;7.850;2023-06-22T14:17:30;14.70;;;6.28;;
4214;SDS011;2121;48.062;7.850;2023-06-22T14:19:55;21.15;;;5.20;;
4214;SDS011;2121;48.062;7.850;2023-06-22T14:22:21;14.18;;;5.28;;
4214;SDS011;2121;48.062;7.850;2023-06-22T14:24:48;11.52;;;5.85;;
4214;SDS011;2121;48.062;7.850;2023-06-22T14:27:14;12.45;;;6.65;;
4214;SDS011;2121;48.062;7.850;2023-06-22T14:29:40;11.77;;;5.57;;
4214;SDS011;2121;48.062;7.850;2023-06-22T14:32:06;8.70;;;5.90;;
4214;SDS011;2121;48.062;7.850;2023-06-22T14:34:33;10.20;;;5.95;;
4214;SDS011;2121;48.062;7.850;2023-06-22T14:37:05;14.00;;;5.70;;
4214;SDS011;2121;48.062;7.850;2023-06-22T14:39:32;9.48;;;5.63;;
4214;SDS011;2121;48.062;7.850;2023-06-22T14:41:58;15.48;;;7.15;;
4214;SDS011;2121;48.062;7.850;2023-06-22T14:44:25;8.30;;;5.10;;
4214;SDS011;2121;48.062;7.850;2023-06-22T14:46:54;15.80;;;6.43;;
4214;SDS011;2121;48.062;7.850;2023-06-22T14:49:20;12.82;;;6.70;;
4214;SDS011;2121;48.062;7.850;2023-06-22T14:51:46;11.00;;;6.03;;
4214;SDS011;2121;48.062;7.850;2023-06-22T14:54:12;10.68;;;5.75;;
4214;SDS011;2121;48.062;7.850;2023-06-22T14:56:37;18.75;;;6.35;;
4214;SDS011;2121;48.062;7.850;2023-06-22T14:59:03;11.00;;;5.88;;
4214;SDS011;2121;48.062;7.850;2023-06-22T15:01:29;12.18;;;5.28;;
4214;SDS011;2121;48.062;7.850;2023-06-22T15:03:54;15.90;;;5.30;;
4214;SDS011;2121;48.062;7.850;2023-06-22T15:06:21;14.73;;;6.22;;
4214;SDS011;2121;48.062;7.850;2023-06-22T15:08:47;19.70;;;5.65;;
4214;SDS011;2121;48.062;7.850;2023-06-22T15:11:12;13.85;;;6.53;;